createdAt,value
2018-07-14T00:01:09.939Z,8.93
2018-07-14T00:06:02.526Z,10.70
2018-07-14T00:10:55.090Z,10.10
2018-07-14T00:15:47.783Z,10.70
2018-07-14T00:20:40.358Z,9.83
2018-07-14T00:25:38.646Z,9.90
2018-07-14T00:30:31.231Z,12.57
2018-07-14T00:35:23.821Z,10.37
2018-07-14T00:40:16.516Z,15.43
2018-07-14T00:45:09.111Z,15.83
2018-07-14T00:50:01.660Z,18.33
2018-07-14T00:54:54.258Z,13.83
2018-07-14T00:59:46.812Z,13.27
2018-07-14T01:04:39.382Z,11.13
2018-07-14T01:09:31.987Z,11.50
2018-07-14T01:14:24.532Z,12.13
2018-07-14T01:19:17.134Z,13.90
2018-07-14T01:24:09.632Z,14.17
2018-07-14T01:29:02.367Z,13.27
2018-07-14T01:33:54.946Z,16.87
2018-07-14T01:38:47.466Z,11.60
2018-07-14T01:43:40.032Z,13.13
2018-07-14T01:48:32.604Z,11.13
2018-07-14T01:53:25.190Z,13.13
2018-07-14T01:58:17.763Z,10.30
2018-07-14T02:03:10.342Z,12.67
2018-07-14T02:08:02.940Z,13.27
2018-07-14T02:12:55.499Z,12.40
2018-07-14T02:17:48.072Z,12.57
2018-07-14T02:22:40.681Z,11.20
2018-07-14T02:27:33.303Z,13.83
2018-07-14T02:32:25.858Z,12.20
2018-07-14T02:37:18.480Z,15.50
2018-07-14T02:42:11.113Z,12.00
2018-07-14T02:47:03.904Z,15.83
2018-07-14T02:51:56.481Z,15.13
2018-07-14T02:56:49.098Z,14.60
2018-07-14T03:01:41.768Z,14.47
2018-07-14T03:06:34.350Z,14.07
2018-07-14T03:11:26.980Z,13.07
2018-07-14T03:16:19.560Z,12.60
2018-07-14T03:21:12.243Z,22.70
2018-07-14T03:26:04.814Z,18.37
2018-07-14T03:30:57.419Z,16.03
2018-07-14T03:35:50.004Z,15.00
2018-07-14T03:40:42.614Z,13.97
2018-07-14T03:45:35.207Z,17.17
2018-07-14T03:50:27.954Z,16.97
2018-07-14T03:55:20.542Z,15.23
2018-07-14T04:00:13.155Z,18.97
2018-07-14T04:05:05.735Z,13.43
2018-07-14T04:09:58.367Z,21.30
2018-07-14T04:14:50.991Z,16.47
2018-07-14T04:19:43.534Z,17.73
2018-07-14T04:24:36.168Z,17.33
2018-07-14T04:29:28.930Z,13.37
2018-07-14T04:34:21.514Z,18.07
2018-07-14T04:39:14.296Z,18.47
2018-07-14T04:44:06.860Z,14.10
2018-07-14T04:48:59.401Z,15.37
2018-07-14T04:53:51.997Z,31.30
2018-07-14T04:58:44.599Z,18.10
2018-07-14T05:03:37.202Z,18.93
2018-07-14T05:08:29.826Z,19.13
2018-07-14T05:13:22.394Z,19.37
2018-07-14T05:18:14.996Z,16.63
2018-07-14T05:23:07.795Z,16.50
2018-07-14T05:28:00.417Z,15.33
2018-07-14T05:32:53.074Z,16.43
2018-07-14T05:37:45.659Z,21.23
2018-07-14T05:42:38.314Z,14.47
2018-07-14T05:47:31.014Z,16.80
2018-07-14T05:52:23.647Z,18.83
2018-07-14T05:57:16.275Z,17.00
2018-07-14T06:02:08.871Z,16.77
2018-07-14T06:07:01.497Z,17.93
2018-07-14T06:11:54.090Z,15.13
2018-07-14T06:16:46.687Z,17.33
2018-07-14T06:21:39.334Z,14.77
2018-07-14T06:26:31.948Z,17.00
2018-07-14T06:31:24.591Z,18.90
2018-07-14T06:36:17.258Z,16.03
2018-07-14T06:41:09.914Z,14.47
2018-07-14T06:46:02.679Z,14.07
2018-07-14T06:50:55.296Z,14.40
2018-07-14T06:55:47.921Z,13.23
2018-07-14T07:00:40.554Z,14.57
2018-07-14T07:05:33.168Z,18.17
2018-07-14T07:10:25.742Z,15.37
2018-07-14T07:15:18.357Z,13.20
2018-07-14T07:20:11.241Z,17.50
2018-07-14T07:25:03.920Z,17.70
2018-07-14T07:29:56.522Z,17.77
2018-07-14T07:34:49.161Z,15.37
2018-07-14T07:39:41.871Z,16.53
2018-07-14T07:44:34.516Z,12.30
2018-07-14T07:49:27.165Z,11.20
2018-07-14T07:54:19.748Z,10.03
2018-07-14T07:59:12.296Z,13.53
2018-07-14T08:04:05.046Z,13.23
2018-07-14T08:08:57.622Z,11.40
2018-07-14T08:13:50.163Z,12.47
2018-07-14T08:18:42.958Z,9.60
2018-07-14T08:23:35.555Z,10.87
2018-07-14T08:28:28.158Z,12.73
2018-07-14T08:33:21.739Z,18.37
2018-07-14T08:38:14.413Z,9.20
2018-07-14T08:43:07.041Z,11.37
2018-07-14T08:47:59.656Z,8.93
2018-07-14T08:52:52.259Z,16.53
2018-07-14T08:57:44.874Z,14.70
2018-07-14T09:02:37.729Z,17.60
2018-07-14T09:07:30.309Z,7.90
2018-07-14T09:12:23.262Z,8.57
2018-07-14T09:17:15.966Z,9.07
2018-07-14T09:22:08.559Z,10.97
2018-07-14T09:27:01.186Z,9.80
2018-07-14T09:31:53.791Z,10.97
2018-07-14T09:36:46.391Z,8.07
2018-07-14T09:41:39.083Z,10.10
2018-07-14T09:46:31.652Z,8.63
2018-07-14T09:51:24.286Z,7.43
2018-07-14T09:56:16.977Z,12.47
2018-07-14T10:01:10.487Z,8.03
2018-07-14T10:06:03.227Z,11.27
2018-07-14T10:10:55.902Z,13.27
2018-07-14T10:15:48.543Z,9.70
2018-07-14T10:20:41.315Z,10.90
2018-07-14T10:25:33.970Z,8.67
2018-07-14T10:30:26.621Z,12.27
2018-07-14T10:35:19.289Z,9.73
2018-07-14T10:40:11.973Z,8.57
2018-07-14T10:45:04.750Z,8.87
2018-07-14T10:49:57.369Z,8.77
2018-07-14T10:54:50.027Z,10.30
2018-07-14T10:59:42.626Z,11.33
2018-07-14T11:04:35.338Z,7.83
2018-07-14T11:09:28.144Z,10.47
2018-07-14T11:14:20.739Z,7.17
2018-07-14T11:19:13.438Z,6.97
2018-07-14T11:24:06.102Z,11.07
2018-07-14T11:28:58.665Z,10.53
2018-07-14T11:33:51.346Z,11.93
2018-07-14T11:38:44.071Z,8.70
2018-07-14T11:43:36.754Z,12.27
2018-07-14T11:48:29.379Z,15.03
2018-07-14T11:53:21.931Z,15.83
2018-07-14T11:58:14.542Z,7.10
2018-07-14T12:03:07.203Z,16.13
2018-07-14T12:07:59.873Z,11.23
2018-07-14T12:12:52.549Z,7.40
2018-07-14T12:17:45.158Z,7.27
2018-07-14T12:22:37.830Z,8.80
2018-07-14T12:27:30.484Z,6.00
2018-07-14T12:32:23.074Z,6.30
2018-07-14T12:37:15.752Z,9.37
2018-07-14T12:42:08.394Z,7.53
2018-07-14T12:47:01.115Z,10.53
2018-07-14T12:51:53.690Z,6.50
2018-07-14T12:56:46.261Z,6.90
2018-07-14T13:01:39.143Z,5.63
2018-07-14T13:06:31.772Z,7.57
2018-07-14T13:11:24.486Z,8.17
2018-07-14T13:16:17.805Z,5.90
2018-07-14T13:21:10.544Z,5.90
2018-07-14T13:26:03.164Z,6.53
2018-07-14T13:30:55.758Z,7.27
2018-07-14T13:35:48.396Z,6.23
2018-07-14T13:40:40.935Z,4.90
2018-07-14T13:45:33.547Z,4.83
2018-07-14T13:50:26.234Z,7.37
2018-07-14T13:55:18.890Z,6.67
2018-07-14T14:00:11.442Z,5.63
2018-07-14T14:05:04.229Z,5.17
2018-07-14T14:09:56.778Z,5.53
2018-07-14T14:14:49.383Z,6.53
2018-07-14T14:19:42.023Z,6.87
2018-07-14T14:24:34.675Z,5.23
2018-07-14T14:29:27.371Z,3.30
2018-07-14T14:34:19.889Z,3.37
2018-07-14T14:39:12.462Z,6.77
2018-07-14T14:44:17.720Z,4.17
2018-07-14T14:49:10.277Z,3.27
2018-07-14T14:54:03.017Z,3.30
2018-07-14T14:58:55.622Z,6.87
2018-07-14T15:03:48.221Z,4.03
2018-07-14T15:08:40.851Z,6.17
2018-07-14T15:13:33.492Z,3.77
2018-07-14T15:18:26.068Z,4.53
2018-07-14T15:23:18.682Z,6.83
2018-07-14T15:28:11.402Z,4.60
2018-07-14T15:33:04.228Z,3.60
2018-07-14T15:37:56.562Z,2.70
2018-07-14T15:42:49.239Z,3.67
2018-07-14T15:47:41.913Z,3.57
2018-07-14T15:52:34.507Z,2.83
2018-07-14T15:57:27.102Z,2.97
2018-07-14T16:02:19.707Z,2.83
2018-07-14T16:07:12.297Z,3.47
2018-07-14T16:12:05.573Z,3.13
2018-07-14T16:16:58.167Z,5.20
2018-07-14T16:21:50.799Z,3.23
2018-07-14T16:26:43.463Z,3.30
2018-07-14T16:31:36.101Z,3.53
2018-07-14T16:36:28.763Z,5.40
2018-07-14T16:41:21.394Z,2.60
2018-07-14T16:46:14.084Z,3.43
2018-07-14T16:51:07.235Z,2.80
2018-07-14T16:56:00.150Z,5.77
2018-07-14T17:00:52.747Z,3.13
2018-07-14T17:05:45.334Z,2.97
2018-07-14T17:10:38.016Z,2.50
2018-07-14T17:15:30.590Z,4.40
2018-07-14T17:20:23.359Z,2.83
2018-07-14T17:25:15.951Z,4.33
2018-07-14T17:30:08.629Z,3.47
2018-07-14T17:35:01.172Z,3.20
2018-07-14T17:39:53.829Z,3.73
2018-07-14T17:44:46.389Z,5.00
2018-07-14T17:49:38.940Z,2.50
2018-07-14T17:54:31.605Z,3.30
2018-07-14T17:59:24.186Z,3.10
2018-07-14T18:04:16.762Z,6.33
2018-07-14T18:09:10.241Z,2.83
2018-07-14T18:14:02.861Z,4.97
2018-07-14T18:18:55.468Z,6.50
2018-07-14T18:23:48.079Z,2.73
2018-07-14T18:28:40.722Z,6.40
2018-07-14T18:33:33.285Z,8.00
2018-07-14T18:38:25.850Z,3.60
2018-07-14T18:43:18.471Z,3.50
2018-07-14T18:48:11.878Z,3.20
2018-07-14T18:53:04.921Z,5.33
2018-07-14T18:57:57.510Z,2.50
2018-07-14T19:02:50.144Z,3.57
2018-07-14T19:07:42.726Z,4.67
2018-07-14T19:12:35.458Z,2.50
2018-07-14T19:17:28.215Z,6.73
2018-07-14T19:22:20.827Z,3.23
2018-07-14T19:27:13.418Z,3.43
2018-07-14T19:32:06.379Z,3.67
2018-07-14T19:36:59.043Z,4.37
2018-07-14T19:41:51.782Z,3.13
2018-07-14T19:46:44.322Z,5.60
2018-07-14T19:51:37.004Z,4.17
2018-07-14T19:56:29.579Z,5.07
2018-07-14T20:01:22.184Z,4.17
2018-07-14T20:06:14.767Z,3.70
2018-07-14T20:11:07.530Z,4.90
2018-07-14T20:16:00.057Z,3.17
2018-07-14T20:20:53.559Z,4.87
2018-07-14T20:25:46.118Z,4.87
2018-07-14T20:30:38.678Z,5.57
2018-07-14T20:35:31.233Z,3.23
2018-07-14T20:40:23.836Z,2.53
2018-07-14T20:45:16.367Z,2.70
2018-07-14T20:50:09.186Z,2.97
2018-07-14T20:55:02.044Z,3.47
2018-07-14T20:59:54.679Z,5.50
2018-07-14T21:04:47.255Z,4.13
2018-07-14T21:09:39.871Z,2.97
2018-07-14T21:14:32.634Z,3.17
2018-07-14T21:19:25.212Z,4.43
2018-07-14T21:24:17.832Z,4.80
2018-07-14T21:29:10.508Z,5.40
2018-07-14T21:34:03.104Z,3.70
2018-07-14T21:38:55.685Z,4.43
2018-07-14T21:43:48.342Z,2.97
2018-07-14T21:48:40.971Z,2.30
2018-07-14T21:53:33.531Z,3.83
2018-07-14T21:58:26.111Z,3.73
2018-07-14T22:03:18.761Z,2.40
2018-07-14T22:08:11.416Z,2.30
2018-07-14T22:13:04.955Z,3.33
2018-07-14T22:17:57.498Z,2.47
2018-07-14T22:22:50.490Z,3.73
2018-07-14T22:27:43.143Z,3.63
2018-07-14T22:32:35.738Z,2.60
2018-07-14T22:37:28.293Z,2.40
2018-07-14T22:42:20.930Z,4.10
2018-07-14T22:47:13.578Z,3.33
2018-07-14T22:52:06.885Z,6.73
2018-07-14T22:56:59.451Z,7.80
2018-07-14T23:01:52.064Z,3.40
2018-07-14T23:06:44.678Z,5.30
2018-07-14T23:11:37.283Z,3.73
2018-07-14T23:16:29.977Z,4.30
2018-07-14T23:21:22.587Z,3.30
2018-07-14T23:26:15.169Z,3.30
2018-07-14T23:31:07.729Z,5.93
2018-07-14T23:36:00.321Z,4.07
2018-07-14T23:40:52.923Z,7.37
2018-07-14T23:45:45.606Z,5.70
2018-07-14T23:50:38.162Z,5.43
2018-07-14T23:55:30.870Z,4.53
